createdAt,value
2023-05-21T00:00:00.472Z,0.0
2023-05-21T00:05:00.269Z,0.0
2023-05-21T00:10:00.403Z,0.0
2023-05-21T00:15:00.348Z,0.5
2023-05-21T00:20:00.486Z,1.2
2023-05-21T00:25:00.260Z,1.7
2023-05-21T00:30:00.324Z,1.9
2023-05-21T00:35:00.315Z,2.6
2023-05-21T00:40:00.506Z,1.7
2023-05-21T00:45:00.316Z,1.6
2023-05-21T00:50:00.373Z,1.4
2023-05-21T00:55:00.259Z,1.7
2023-05-21T01:00:00.410Z,1.0
2023-05-21T01:05:00.298Z,2.0
2023-05-21T01:10:00.354Z,1.3
2023-05-21T01:15:00.303Z,1.6
2023-05-21T01:20:00.316Z,1.2
2023-05-21T01:25:00.277Z,1.2
2023-05-21T01:30:00.339Z,1.6
2023-05-21T01:35:00.269Z,2.5
2023-05-21T01:40:00.343Z,1.7
2023-05-21T01:45:00.294Z,1.7
2023-05-21T01:50:00.331Z,0.6
2023-05-21T01:55:00.406Z,1.3
2023-05-21T02:00:00.326Z,1.5
2023-05-21T02:05:00.380Z,1.6
2023-05-21T02:10:00.313Z,1.0
2023-05-21T02:15:00.302Z,1.7
2023-05-21T02:20:00.331Z,1.3
2023-05-21T02:25:00.275Z,1.9
2023-05-21T02:30:00.347Z,1.0
2023-05-21T02:35:00.328Z,1.4
2023-05-21T02:40:00.345Z,2.7
2023-05-21T02:45:00.284Z,2.4
2023-05-21T02:50:00.378Z,2.1
2023-05-21T02:55:00.324Z,2.8
2023-05-21T03:00:00.348Z,3.5
2023-05-21T03:05:00.305Z,2.2
2023-05-21T03:10:00.332Z,2.3
2023-05-21T03:15:00.277Z,1.7
2023-05-21T03:20:00.370Z,1.9
2023-05-21T03:25:00.339Z,2.2
2023-05-21T03:30:00.343Z,2.6
2023-05-21T03:35:00.288Z,2.6
2023-05-21T03:40:00.369Z,2.9
2023-05-21T03:45:00.273Z,2.9
2023-05-21T03:50:00.407Z,2.9
2023-05-21T03:55:00.312Z,4.0
2023-05-21T04:00:00.433Z,1.7
2023-05-21T04:05:00.334Z,1.4
2023-05-21T04:10:00.346Z,2.3
2023-05-21T04:15:00.317Z,1.3
2023-05-21T04:20:00.369Z,1.5
2023-05-21T04:25:00.334Z,2.1
2023-05-21T04:30:00.317Z,2.9
2023-05-21T04:35:00.292Z,3.7
2023-05-21T04:40:00.329Z,3.4
2023-05-21T04:45:00.346Z,3.5
2023-05-21T04:50:00.346Z,2.0
2023-05-21T04:55:00.282Z,1.5
2023-05-21T05:00:00.417Z,3.0
2023-05-21T05:05:00.279Z,3.4
2023-05-21T05:10:00.348Z,3.6
2023-05-21T05:15:00.276Z,4.7
2023-05-21T05:20:00.344Z,4.2
2023-05-21T05:25:00.396Z,6.2
2023-05-21T05:30:00.370Z,4.1
2023-05-21T05:35:02.708Z,5.7
2023-05-21T05:40:00.446Z,4.9
2023-05-21T05:45:00.256Z,4.4
2023-05-21T05:50:00.333Z,2.9
2023-05-21T05:55:00.242Z,4.9
2023-05-21T06:00:00.506Z,6.4
2023-05-21T06:05:00.307Z,2.0
2023-05-21T06:10:00.315Z,5.4
2023-05-21T06:15:00.359Z,2.8
2023-05-21T06:20:00.342Z,4.7
2023-05-21T06:25:00.337Z,5.5
2023-05-21T06:30:00.367Z,3.3
2023-05-21T06:35:00.320Z,3.5
2023-05-21T06:40:00.373Z,4.4
2023-05-21T06:45:00.324Z,5.2
2023-05-21T06:50:00.323Z,4.4
2023-05-21T06:55:00.261Z,1.3
2023-05-21T07:00:00.373Z,4.5
2023-05-21T07:05:00.279Z,3.1
2023-05-21T07:10:00.414Z,3.8
2023-05-21T07:15:00.337Z,2.8
2023-05-21T07:20:00.379Z,2.5
2023-05-21T07:25:00.299Z,3.7
2023-05-21T07:30:00.548Z,1.7
2023-05-21T07:35:00.524Z,3.3
2023-05-21T07:40:00.645Z,3.6
2023-05-21T07:45:00.622Z,3.6
2023-05-21T07:50:00.414Z,4.1
2023-05-21T07:55:00.311Z,1.7
2023-05-21T08:00:00.455Z,7.3
2023-05-21T08:05:00.760Z,6.5
2023-05-21T08:10:03.056Z,4.4
2023-05-21T08:15:00.348Z,4.9
2023-05-21T08:20:00.381Z,5.4
2023-05-21T08:25:00.476Z,6.1
2023-05-21T08:30:00.322Z,3.8
2023-05-21T08:35:00.352Z,4.5
2023-05-21T08:40:00.436Z,10.4
2023-05-21T08:45:00.410Z,4.5
2023-05-21T08:50:00.377Z,5.3
2023-05-21T08:55:00.342Z,5.9
2023-05-21T09:00:00.634Z,7.8
2023-05-21T09:05:00.277Z,10.5
2023-05-21T09:10:00.340Z,6.8
2023-05-21T09:15:00.391Z,5.6
2023-05-21T09:20:00.326Z,7.5
2023-05-21T09:25:00.254Z,8.6
2023-05-21T09:30:00.374Z,9.2
2023-05-21T09:35:00.260Z,4.5
2023-05-21T09:40:00.322Z,8.9
2023-05-21T09:45:00.320Z,10.3
2023-05-21T09:50:00.333Z,10.2
2023-05-21T09:55:00.318Z,8.2
2023-05-21T10:00:00.505Z,13.0
2023-05-21T10:05:00.271Z,10.7
2023-05-21T10:10:00.320Z,9.6
2023-05-21T10:15:00.312Z,7.9
2023-05-21T10:20:00.350Z,10.4
2023-05-21T10:25:00.317Z,9.7
2023-05-21T10:30:00.352Z,13.6
2023-05-21T10:35:02.060Z,13.0
2023-05-21T10:40:00.353Z,4.8
2023-05-21T10:45:00.265Z,11.4
2023-05-21T10:50:00.430Z,9.4
2023-05-21T10:55:00.320Z,6.9
2023-05-21T11:00:00.732Z,8.0
2023-05-21T11:05:00.493Z,6.1
2023-05-21T11:10:00.338Z,8.8
2023-05-21T11:15:00.345Z,10.7
2023-05-21T11:20:00.377Z,10.5
2023-05-21T11:25:00.262Z,9.0
2023-05-21T11:30:00.346Z,7.5
2023-05-21T11:35:00.284Z,9.2
2023-05-21T11:40:00.337Z,10.1
2023-05-21T11:45:00.307Z,9.3
2023-05-21T11:50:00.542Z,6.9
2023-05-21T11:55:00.367Z,11.4
2023-05-21T12:00:00.497Z,8.3
2023-05-21T12:05:00.912Z,7.7
2023-05-21T12:10:00.379Z,12.6
2023-05-21T12:15:00.289Z,8.5
2023-05-21T12:20:00.349Z,8.4
2023-05-21T12:25:00.486Z,6.0
2023-05-21T12:30:00.333Z,9.0
2023-05-21T12:35:00.572Z,9.3
2023-05-21T12:40:00.362Z,11.1
2023-05-21T12:45:00.324Z,6.6
2023-05-21T12:50:00.412Z,9.7
2023-05-21T12:55:00.363Z,7.6
2023-05-21T13:00:00.515Z,4.8
2023-05-21T13:05:00.297Z,7.8
2023-05-21T13:10:00.368Z,12.1
2023-05-21T13:15:00.317Z,9.1
2023-05-21T13:20:00.342Z,6.8
2023-05-21T13:25:00.259Z,12.4
2023-05-21T13:30:00.438Z,9.0
2023-05-21T13:35:00.293Z,7.2
2023-05-21T13:40:00.427Z,7.3
2023-05-21T13:45:00.341Z,11.1
2023-05-21T13:50:00.337Z,5.7
2023-05-21T13:55:00.295Z,6.8
2023-05-21T14:00:00.465Z,12.0
2023-05-21T14:05:00.285Z,6.7
2023-05-21T14:10:00.332Z,8.3
2023-05-21T14:15:00.448Z,6.9
2023-05-21T14:20:00.410Z,4.8
2023-05-21T14:25:00.626Z,5.6
2023-05-21T14:30:00.332Z,5.4
2023-05-21T14:35:00.319Z,7.9
2023-05-21T14:40:00.340Z,12.2
2023-05-21T14:45:18.525Z,7.1
2023-05-21T14:50:00.355Z,5.0
2023-05-21T14:55:00.348Z,8.1
2023-05-21T15:00:00.325Z,8.4
2023-05-21T15:05:00.322Z,5.3
2023-05-21T15:10:00.321Z,6.3
2023-05-21T15:15:00.345Z,5.0
2023-05-21T15:20:00.366Z,8.8
2023-05-21T15:25:00.361Z,8.7
2023-05-21T15:30:00.594Z,7.3
2023-05-21T15:35:00.755Z,5.9
2023-05-21T15:40:00.807Z,6.4
2023-05-21T15:45:00.324Z,9.6
2023-05-21T15:50:00.749Z,6.7
2023-05-21T15:55:00.334Z,6.4
2023-05-21T16:00:00.421Z,7.6
2023-05-21T16:05:00.270Z,7.2
2023-05-21T16:10:00.340Z,9.1
2023-05-21T16:15:00.307Z,9.5
2023-05-21T16:20:00.554Z,8.1
2023-05-21T16:25:00.333Z,11.3
2023-05-21T16:30:00.359Z,11.2
2023-05-21T16:35:00.324Z,10.4
2023-05-21T16:40:00.379Z,9.7
2023-05-21T16:45:00.383Z,9.2
2023-05-21T16:50:00.354Z,9.6
2023-05-21T16:55:00.273Z,10.9
2023-05-21T17:00:00.427Z,8.1
2023-05-21T17:05:00.317Z,9.5
2023-05-21T17:10:00.362Z,9.4
2023-05-21T17:15:00.339Z,8.5
2023-05-21T17:20:00.329Z,7.6
2023-05-21T17:25:00.366Z,6.7
2023-05-21T17:30:00.357Z,6.5
2023-05-21T17:35:00.286Z,7.8
2023-05-21T17:40:00.487Z,6.5
2023-05-21T17:45:00.338Z,7.2
2023-05-21T17:50:00.336Z,7.1
2023-05-21T17:55:00.258Z,7.3
2023-05-21T18:00:00.469Z,7.5
2023-05-21T18:05:00.252Z,6.5
2023-05-21T18:10:00.326Z,6.7
2023-05-21T18:15:00.290Z,4.8
2023-05-21T18:20:00.334Z,5.8
2023-05-21T18:25:00.312Z,5.8
2023-05-21T18:30:00.416Z,8.5
2023-05-21T18:35:00.270Z,7.2
2023-05-21T18:40:00.364Z,7.0
2023-05-21T18:45:00.281Z,5.0
2023-05-21T18:50:00.349Z,6.3
2023-05-21T18:55:00.252Z,3.9
2023-05-21T19:00:00.622Z,4.6
2023-05-21T19:05:00.447Z,6.4
2023-05-21T19:10:00.544Z,6.0
2023-05-21T19:15:00.270Z,6.0
2023-05-21T19:20:00.337Z,5.8
2023-05-21T19:25:00.367Z,5.6
2023-05-21T19:30:00.410Z,4.4
2023-05-21T19:35:00.327Z,4.7
2023-05-21T19:40:00.379Z,4.8
2023-05-21T19:45:00.361Z,4.9
2023-05-21T19:50:00.360Z,3.6
2023-05-21T19:55:00.264Z,5.7
2023-05-21T20:00:00.510Z,5.8
2023-05-21T20:05:00.514Z,4.2
2023-05-21T20:10:00.337Z,4.5
2023-05-21T20:15:00.353Z,2.6
2023-05-21T20:20:00.661Z,3.3
2023-05-21T20:25:00.330Z,2.8
2023-05-21T20:30:00.374Z,3.4
2023-05-21T20:35:04.152Z,3.0
2023-05-21T20:40:00.522Z,4.2
2023-05-21T20:45:00.378Z,6.5
2023-05-21T20:50:00.558Z,3.8
2023-05-21T20:55:00.274Z,5.4
2023-05-21T21:00:00.361Z,4.6
2023-05-21T21:05:00.332Z,5.3
2023-05-21T21:10:00.341Z,3.5
2023-05-21T21:15:00.335Z,5.3
2023-05-21T21:20:00.345Z,5.4
2023-05-21T21:25:00.320Z,5.5
2023-05-21T21:30:00.315Z,2.5
2023-05-21T21:35:00.296Z,3.6
2023-05-21T21:40:00.379Z,5.6
2023-05-21T21:45:00.336Z,3.3
2023-05-21T21:50:00.358Z,5.7
2023-05-21T21:55:00.400Z,7.1
2023-05-21T22:00:00.408Z,5.6
2023-05-21T22:05:00.462Z,4.3
2023-05-21T22:10:00.339Z,4.7
2023-05-21T22:15:00.306Z,4.6
2023-05-21T22:20:00.578Z,4.7
2023-05-21T22:25:00.340Z,4.6
2023-05-21T22:30:00.336Z,7.6
2023-05-21T22:35:00.314Z,3.2
2023-05-21T22:40:00.494Z,2.8
2023-05-21T22:45:00.337Z,4.7
2023-05-21T22:50:00.324Z,5.4
2023-05-21T22:55:00.287Z,5.4
2023-05-21T23:00:00.371Z,3.6
2023-05-21T23:05:00.510Z,3.8
2023-05-21T23:10:00.384Z,4.8
2023-05-21T23:15:00.418Z,4.4
2023-05-21T23:20:00.357Z,2.2
2023-05-21T23:25:00.250Z,4.6
2023-05-21T23:30:00.351Z,3.3
2023-05-21T23:35:00.489Z,3.9
2023-05-21T23:40:00.277Z,2.1
2023-05-21T23:45:00.295Z,3.9
2023-05-21T23:50:00.360Z,1.6
2023-05-21T23:55:00.284Z,1.7
